createdAt,value
2018-03-14T00:01:07.575Z,5.27
2018-03-14T00:03:36.596Z,5.30
2018-03-14T00:06:04.880Z,5.63
2018-03-14T00:08:33.137Z,5.43
2018-03-14T00:11:01.421Z,6.00
2018-03-14T00:13:29.737Z,5.60
2018-03-14T00:15:58.066Z,5.33
2018-03-14T00:18:27.254Z,6.03
2018-03-14T00:20:55.620Z,6.20
2018-03-14T00:23:24.020Z,5.47
2018-03-14T00:25:52.299Z,5.97
2018-03-14T00:28:22.075Z,5.93
2018-03-14T00:30:50.342Z,5.83
2018-03-14T00:33:18.621Z,6.00
2018-03-14T00:35:47.650Z,6.37
2018-03-14T00:38:15.931Z,5.93
2018-03-14T00:40:44.264Z,6.47
2018-03-14T00:43:12.559Z,6.43
2018-03-14T00:45:40.825Z,6.03
2018-03-14T00:48:09.100Z,5.80
2018-03-14T00:50:37.373Z,5.80
2018-03-14T00:53:05.642Z,6.67
2018-03-14T00:55:34.663Z,6.20
2018-03-14T00:58:02.935Z,5.33
2018-03-14T01:00:31.980Z,4.83
2018-03-14T01:03:00.297Z,4.80
2018-03-14T01:05:28.565Z,4.30
2018-03-14T01:07:56.955Z,4.57
2018-03-14T01:10:25.406Z,4.60
2018-03-14T01:12:53.726Z,4.07
2018-03-14T01:15:22.003Z,4.33
2018-03-14T01:17:50.268Z,3.50
2018-03-14T01:20:19.288Z,3.50
2018-03-14T01:22:48.472Z,4.33
2018-03-14T01:25:16.728Z,4.47
2018-03-14T01:27:45.127Z,4.27
2018-03-14T01:30:13.409Z,3.83
2018-03-14T01:32:41.684Z,4.00
2018-03-14T01:35:09.954Z,3.63
2018-03-14T01:37:38.227Z,3.80
2018-03-14T01:40:07.244Z,4.03
2018-03-14T01:42:35.499Z,3.17
2018-03-14T01:45:03.747Z,3.53
2018-03-14T01:47:32.027Z,3.40
2018-03-14T01:50:01.042Z,3.47
2018-03-14T01:52:29.372Z,3.80
2018-03-14T01:54:57.754Z,3.73
2018-03-14T01:57:26.107Z,4.20
2018-03-14T01:59:54.564Z,4.37
2018-03-14T02:02:22.848Z,4.17
2018-03-14T02:04:51.130Z,3.83
2018-03-14T02:07:19.375Z,2.97
2018-03-14T02:09:47.652Z,3.60
2018-03-14T02:12:15.925Z,3.73
2018-03-14T02:14:45.568Z,3.20
2018-03-14T02:17:13.935Z,2.80
2018-03-14T02:19:42.252Z,3.33
2018-03-14T02:22:10.525Z,3.03
2018-03-14T02:24:38.783Z,3.37
2018-03-14T02:27:07.024Z,3.00
2018-03-14T02:29:35.295Z,3.57
2018-03-14T02:32:03.569Z,3.17
2018-03-14T02:34:31.847Z,4.00
2018-03-14T02:37:02.814Z,4.13
2018-03-14T02:39:31.084Z,4.63
2018-03-14T02:41:59.403Z,5.27
2018-03-14T02:44:27.816Z,5.60
2018-03-14T02:46:56.330Z,6.20
2018-03-14T02:49:24.641Z,6.40
2018-03-14T02:51:52.904Z,6.30
2018-03-14T02:54:21.949Z,6.37
2018-03-14T02:59:22.353Z,6.30
2018-03-14T03:01:50.587Z,6.83
2018-03-14T03:04:18.877Z,6.10
2018-03-14T03:06:50.996Z,7.30
2018-03-14T03:09:20.024Z,6.73
2018-03-14T03:11:48.278Z,7.00
2018-03-14T03:14:17.287Z,6.40
2018-03-14T03:16:45.589Z,7.17
2018-03-14T03:19:13.897Z,7.03
2018-03-14T03:21:42.187Z,7.97
2018-03-14T03:24:10.447Z,7.27
2018-03-14T03:26:39.488Z,8.10
2018-03-14T03:29:07.732Z,7.37
2018-03-14T03:31:36.776Z,7.27
2018-03-14T03:34:05.028Z,6.00
2018-03-14T03:36:33.355Z,7.10
2018-03-14T03:39:01.595Z,6.73
2018-03-14T03:41:29.889Z,7.60
2018-03-14T03:43:58.257Z,7.57
2018-03-14T03:46:26.569Z,6.47
2018-03-14T03:48:54.936Z,6.97
2018-03-14T03:51:23.294Z,7.20
2018-03-14T03:53:51.582Z,7.40
2018-03-14T03:56:19.893Z,7.23
2018-03-14T03:58:48.159Z,7.10
2018-03-14T04:01:16.447Z,7.90
2018-03-14T04:03:45.511Z,6.63
2018-03-14T04:06:13.810Z,6.93
2018-03-14T04:08:42.881Z,7.07
2018-03-14T04:11:11.176Z,6.87
2018-03-14T04:13:39.658Z,6.87
2018-03-14T04:16:08.028Z,7.37
2018-03-14T04:18:36.276Z,7.63
2018-03-14T04:21:04.544Z,7.87
2018-03-14T04:23:32.789Z,7.20
2018-03-14T04:26:01.922Z,7.67
2018-03-14T04:28:30.270Z,7.83
2018-03-14T04:30:59.338Z,8.83
2018-03-14T04:33:27.660Z,7.80
2018-03-14T04:35:56.857Z,7.87
2018-03-14T04:38:27.436Z,7.70
2018-03-14T04:40:55.721Z,7.90
2018-03-14T04:43:24.086Z,8.30
2018-03-14T04:45:53.117Z,7.40
2018-03-14T04:48:22.146Z,7.70
2018-03-14T04:50:50.411Z,8.03
2018-03-14T04:53:19.446Z,7.70
2018-03-14T04:55:48.561Z,7.70
2018-03-14T04:58:16.937Z,7.00
2018-03-14T05:00:45.264Z,7.13
2018-03-14T05:03:13.544Z,6.80
2018-03-14T05:05:41.796Z,6.90
2018-03-14T05:08:10.076Z,5.87
2018-03-14T05:10:39.190Z,6.03
2018-03-14T05:13:08.229Z,6.60
2018-03-14T05:15:36.481Z,5.63
2018-03-14T05:18:05.570Z,5.63
2018-03-14T05:20:33.825Z,5.70
2018-03-14T05:23:02.173Z,6.53
2018-03-14T05:25:31.188Z,6.17
2018-03-14T05:27:59.515Z,5.90
2018-03-14T05:30:27.899Z,5.10
2018-03-14T05:32:56.248Z,5.13
2018-03-14T05:35:24.731Z,5.60
2018-03-14T05:37:53.006Z,4.57
2018-03-14T05:40:21.268Z,5.97
2018-03-14T05:42:49.536Z,5.00
2018-03-14T05:45:17.810Z,5.17
2018-03-14T05:47:46.187Z,6.63
2018-03-14T05:50:15.315Z,5.63
2018-03-14T05:52:43.637Z,4.70
2018-03-14T05:55:11.925Z,5.53
2018-03-14T05:57:40.185Z,5.30
2018-03-14T06:00:09.229Z,5.53
2018-03-14T06:02:37.480Z,5.60
2018-03-14T06:05:05.753Z,5.40
2018-03-14T06:07:35.141Z,5.80
2018-03-14T06:10:03.401Z,5.33
2018-03-14T06:12:32.441Z,5.57
2018-03-14T06:15:00.849Z,5.70
2018-03-14T06:17:30.080Z,6.17
2018-03-14T06:19:58.618Z,5.50
2018-03-14T06:22:27.154Z,5.90
2018-03-14T06:24:56.523Z,5.03
2018-03-14T06:27:25.052Z,6.00
2018-03-14T06:29:54.503Z,6.20
2018-03-14T06:32:23.802Z,5.57
2018-03-14T06:34:52.155Z,6.23
2018-03-14T06:37:20.543Z,5.60
2018-03-14T06:39:48.831Z,6.80
2018-03-14T06:42:17.427Z,6.00
2018-03-14T06:44:46.204Z,5.70
2018-03-14T06:47:14.719Z,5.80
2018-03-14T06:49:43.214Z,6.27
2018-03-14T06:52:12.592Z,5.47
2018-03-14T06:54:40.912Z,5.33
2018-03-14T06:57:10.245Z,5.83
2018-03-14T06:59:57.026Z,5.87
2018-03-14T07:02:41.164Z,4.87
2018-03-14T07:05:28.270Z,5.30
2018-03-14T07:07:57.083Z,4.43
2018-03-14T07:10:26.506Z,5.10
2018-03-14T07:12:55.091Z,4.30
2018-03-14T07:15:23.534Z,4.40
2018-03-14T07:17:53.055Z,5.03
2018-03-14T07:20:21.482Z,4.90
2018-03-14T07:22:49.981Z,4.93
2018-03-14T07:25:18.388Z,4.30
2018-03-14T07:27:47.086Z,4.33
2018-03-14T07:30:15.684Z,4.30
2018-03-14T07:32:44.023Z,4.07
2018-03-14T07:35:12.499Z,3.87
2018-03-14T07:37:40.895Z,4.23
2018-03-14T07:40:09.449Z,4.63
2018-03-14T07:42:37.885Z,4.60
2018-03-14T07:45:06.168Z,4.40
2018-03-14T07:47:34.509Z,4.13
2018-03-14T07:50:02.835Z,4.67
2018-03-14T07:52:32.645Z,4.33
2018-03-14T07:55:00.942Z,3.93
2018-03-14T07:57:30.153Z,4.17
2018-03-14T07:59:59.322Z,3.93
2018-03-14T08:02:27.863Z,4.27
2018-03-14T08:04:57.630Z,4.37
2018-03-14T08:07:27.451Z,3.93
2018-03-14T08:09:55.959Z,4.07
2018-03-14T08:12:24.570Z,3.97
2018-03-14T08:14:52.950Z,4.83
2018-03-14T08:17:22.160Z,4.63
2018-03-14T08:19:50.558Z,3.77
2018-03-14T08:22:19.317Z,4.13
2018-03-14T08:24:48.472Z,4.00
2018-03-14T08:27:17.424Z,4.30
2018-03-14T08:29:45.885Z,4.17
2018-03-14T08:32:14.744Z,4.30
2018-03-14T08:34:43.072Z,4.60
2018-03-14T08:37:12.359Z,3.77
2018-03-14T08:39:41.184Z,4.20
2018-03-14T08:42:09.559Z,4.07
2018-03-14T08:44:37.915Z,3.50
2018-03-14T08:47:07.019Z,3.40
2018-03-14T08:49:35.414Z,3.80
2018-03-14T08:52:03.740Z,3.50
2018-03-14T08:54:32.986Z,4.00
2018-03-14T08:57:02.219Z,3.60
2018-03-14T08:59:31.368Z,3.40
2018-03-14T09:01:59.681Z,3.70
2018-03-14T09:04:29.857Z,3.47
2018-03-14T09:06:59.184Z,3.27
2018-03-14T09:09:28.753Z,3.10
2018-03-14T09:11:57.260Z,3.57
2018-03-14T09:14:25.658Z,3.23
2018-03-14T09:16:54.286Z,3.53
2018-03-14T09:19:23.193Z,3.10
2018-03-14T09:21:51.536Z,2.70
2018-03-14T09:24:20.264Z,3.47
2018-03-14T09:26:49.293Z,2.70
2018-03-14T09:29:17.567Z,2.50
2018-03-14T09:31:45.898Z,3.07
2018-03-14T09:34:14.129Z,3.57
2018-03-14T09:36:43.192Z,2.97
2018-03-14T09:39:11.471Z,2.90
2018-03-14T09:41:39.711Z,2.87
2018-03-14T09:44:08.757Z,3.07
2018-03-14T09:46:37.171Z,3.00
2018-03-14T09:49:05.459Z,3.10
2018-03-14T09:51:33.732Z,3.43
2018-03-14T09:54:02.001Z,3.43
2018-03-14T09:56:30.309Z,3.00
2018-03-14T09:58:58.621Z,3.57
2018-03-14T10:01:27.053Z,4.30
2018-03-14T10:03:56.278Z,3.60
2018-03-14T10:06:25.353Z,3.93
2018-03-14T10:08:53.647Z,3.60
2018-03-14T10:11:21.978Z,3.73
2018-03-14T10:13:50.324Z,3.57
2018-03-14T10:16:20.392Z,3.10
2018-03-14T10:18:50.379Z,3.20
2018-03-14T10:21:18.639Z,3.33
2018-03-14T10:23:46.952Z,2.93
2018-03-14T10:26:15.257Z,3.27
2018-03-14T10:28:43.571Z,3.20
2018-03-14T10:31:12.620Z,3.17
2018-03-14T10:33:41.026Z,3.30
2018-03-14T10:36:09.524Z,3.27
2018-03-14T10:38:37.988Z,3.13
2018-03-14T10:41:06.438Z,3.37
2018-03-14T10:43:34.840Z,3.67
2018-03-14T10:46:03.313Z,3.83
2018-03-14T10:48:31.745Z,3.70
2018-03-14T10:51:00.922Z,4.00
2018-03-14T10:53:29.754Z,3.90
2018-03-14T10:55:58.444Z,4.00
2018-03-14T10:58:27.749Z,3.73
2018-03-14T11:01:11.994Z,3.47
2018-03-14T11:03:47.559Z,3.80
2018-03-14T11:06:16.069Z,4.00
2018-03-14T11:08:45.168Z,3.80
2018-03-14T11:11:14.644Z,3.27
2018-03-14T11:13:43.149Z,3.37
2018-03-14T11:16:11.631Z,3.70
2018-03-14T11:18:39.958Z,4.13
2018-03-14T11:21:08.306Z,3.93
2018-03-14T11:23:36.710Z,3.50
2018-03-14T11:26:05.014Z,3.60
2018-03-14T11:28:33.363Z,3.93
2018-03-14T11:31:01.813Z,3.80
2018-03-14T11:33:30.278Z,4.43
2018-03-14T11:35:58.909Z,4.73
2018-03-14T11:38:28.983Z,5.00
2018-03-14T11:40:57.865Z,5.00
2018-03-14T11:43:27.184Z,4.27
2018-03-14T11:45:56.592Z,4.87
2018-03-14T11:48:25.181Z,4.67
2018-03-14T11:50:53.582Z,4.73
2018-03-14T11:53:22.768Z,4.03
2018-03-14T11:55:51.282Z,4.27
2018-03-14T11:58:20.497Z,3.77
2018-03-14T12:00:49.144Z,3.60
2018-03-14T12:03:17.637Z,3.93
2018-03-14T12:05:46.414Z,3.60
2018-03-14T12:08:14.836Z,3.73
2018-03-14T12:10:43.336Z,3.73
2018-03-14T12:13:11.713Z,2.90
2018-03-14T12:15:40.148Z,2.90
2018-03-14T12:18:08.560Z,3.83
2018-03-14T12:20:37.663Z,3.63
2018-03-14T12:23:06.903Z,4.37
2018-03-14T12:25:35.270Z,4.40
2018-03-14T12:28:04.778Z,4.30
2018-03-14T12:30:33.084Z,4.33
2018-03-14T12:33:02.202Z,4.10
2018-03-14T12:35:30.485Z,4.70
2018-03-14T12:37:59.836Z,4.47
2018-03-14T12:40:28.391Z,4.10
2018-03-14T12:42:57.568Z,5.13
2018-03-14T12:45:26.959Z,4.00
2018-03-14T12:47:55.496Z,4.00
2018-03-14T12:50:25.270Z,4.00
2018-03-14T12:52:53.988Z,3.80
2018-03-14T12:55:23.276Z,3.63
2018-03-14T12:57:51.859Z,3.50
2018-03-14T13:00:20.626Z,3.93
2018-03-14T13:02:49.039Z,3.60
2018-03-14T13:05:18.171Z,3.67
2018-03-14T13:07:46.483Z,3.13
2018-03-14T13:10:14.994Z,3.30
2018-03-14T13:12:43.301Z,3.30
2018-03-14T13:15:11.695Z,3.97
2018-03-14T13:17:40.763Z,3.43
2018-03-14T13:20:09.108Z,3.20
2018-03-14T13:22:38.260Z,4.27
2018-03-14T13:25:06.585Z,3.80
2018-03-14T13:27:35.632Z,3.53
2018-03-14T13:30:03.893Z,3.57
2018-03-14T13:32:32.186Z,4.33
2018-03-14T13:35:01.214Z,3.90
2018-03-14T13:37:29.523Z,4.03
2018-03-14T13:39:57.874Z,4.00
2018-03-14T13:42:26.971Z,4.13
2018-03-14T13:44:56.106Z,3.83
2018-03-14T13:47:24.507Z,3.83
2018-03-14T13:49:52.792Z,3.90
2018-03-14T13:52:21.092Z,4.07
2018-03-14T13:54:49.373Z,3.30
2018-03-14T13:57:17.643Z,3.70
2018-03-14T13:59:45.944Z,4.10
2018-03-14T14:02:14.283Z,3.27
2018-03-14T14:04:42.566Z,4.07
2018-03-14T14:07:10.845Z,3.40
2018-03-14T14:09:39.122Z,3.30
2018-03-14T14:12:07.397Z,3.27
2018-03-14T14:14:36.442Z,3.20
2018-03-14T14:17:04.730Z,3.40
2018-03-14T14:19:33.084Z,3.20
2018-03-14T14:22:01.346Z,3.80
2018-03-14T14:24:29.673Z,3.70
2018-03-14T14:26:58.017Z,3.47
2018-03-14T14:29:26.436Z,3.53
2018-03-14T14:31:54.817Z,3.80
2018-03-14T14:34:23.104Z,4.47
2018-03-14T14:36:52.145Z,4.40
2018-03-14T14:39:20.418Z,4.63
2018-03-14T14:41:48.688Z,4.17
2018-03-14T14:44:16.972Z,4.40
2018-03-14T14:46:45.443Z,4.40
2018-03-14T14:49:13.938Z,4.00
2018-03-14T14:51:42.701Z,4.23
2018-03-14T14:54:11.079Z,3.67
2018-03-14T14:56:39.580Z,3.93
2018-03-14T14:59:08.528Z,4.10
2018-03-14T15:01:37.035Z,4.03
2018-03-14T15:04:05.299Z,4.03
2018-03-14T15:06:34.299Z,4.10
2018-03-14T15:09:02.586Z,3.50
2018-03-14T15:11:31.642Z,4.33
2018-03-14T15:14:00.740Z,4.40
2018-03-14T15:16:29.368Z,4.00
2018-03-14T15:18:58.621Z,4.33
2018-03-14T15:21:27.203Z,4.07
2018-03-14T15:23:56.476Z,4.13
2018-03-14T15:26:25.040Z,4.00
2018-03-14T15:28:56.250Z,4.20
2018-03-14T15:31:24.819Z,4.20
2018-03-14T15:33:53.378Z,6.43
2018-03-14T15:36:22.669Z,4.40
2018-03-14T15:38:50.962Z,4.13
2018-03-14T15:41:19.234Z,4.10
2018-03-14T15:43:48.412Z,4.10
2018-03-14T15:46:17.492Z,4.73
2018-03-14T15:48:45.772Z,4.27
2018-03-14T15:51:14.074Z,4.83
2018-03-14T15:53:42.374Z,4.60
2018-03-14T15:56:10.660Z,4.47
2018-03-14T15:58:39.735Z,4.40
2018-03-14T16:01:08.010Z,4.47
2018-03-14T16:03:36.286Z,3.63
2018-03-14T16:06:05.310Z,4.50
2018-03-14T16:08:34.389Z,4.43
2018-03-14T16:11:03.432Z,3.97
2018-03-14T16:13:32.443Z,3.93
2018-03-14T16:16:00.734Z,3.83
2018-03-14T16:18:29.833Z,4.60
2018-03-14T16:20:58.251Z,4.40
2018-03-14T16:23:26.639Z,4.13
2018-03-14T16:25:55.007Z,4.03
2018-03-14T16:28:23.339Z,3.90
2018-03-14T16:30:51.572Z,3.93
2018-03-14T16:33:19.862Z,4.30
2018-03-14T16:35:48.091Z,4.17
2018-03-14T16:38:16.356Z,3.93
2018-03-14T16:40:44.648Z,4.33
2018-03-14T16:43:12.917Z,4.70
2018-03-14T16:45:41.168Z,4.47
2018-03-14T16:48:09.740Z,4.97
2018-03-14T16:50:38.177Z,4.33
2018-03-14T16:53:07.297Z,4.03
2018-03-14T16:55:36.435Z,3.97
2018-03-14T16:58:04.897Z,4.10
2018-03-14T17:00:34.149Z,4.27
2018-03-14T17:03:02.465Z,4.13
2018-03-14T17:05:31.121Z,4.60
2018-03-14T17:07:59.654Z,3.73
2018-03-14T17:10:28.222Z,3.97
2018-03-14T17:12:57.009Z,3.90
2018-03-14T17:15:25.389Z,3.60
2018-03-14T17:17:53.973Z,4.33
2018-03-14T17:20:22.561Z,3.73
2018-03-14T17:22:51.638Z,3.20
2018-03-14T17:25:20.133Z,4.20
2018-03-14T17:27:48.748Z,3.60
2018-03-14T17:30:17.395Z,4.10
2018-03-14T17:32:45.860Z,4.20
2018-03-14T17:35:14.365Z,3.70
2018-03-14T17:37:42.784Z,3.57
2018-03-14T17:40:11.054Z,3.67
2018-03-14T17:42:39.374Z,4.17
2018-03-14T17:45:07.659Z,4.10
2018-03-14T17:47:36.044Z,4.17
2018-03-14T17:50:04.387Z,4.10
2018-03-14T17:52:32.646Z,4.47
2018-03-14T17:55:01.020Z,4.70
2018-03-14T17:57:29.457Z,4.40
2018-03-14T17:59:57.926Z,3.97
2018-03-14T18:02:26.508Z,4.87
2018-03-14T18:04:54.927Z,4.50
2018-03-14T18:07:23.545Z,4.47
2018-03-14T18:09:51.980Z,5.13
2018-03-14T18:12:21.058Z,4.33
2018-03-14T18:14:50.202Z,4.70
2018-03-14T18:17:18.571Z,4.43
2018-03-14T18:19:47.831Z,4.47
2018-03-14T18:22:16.275Z,4.30
2018-03-14T18:24:44.701Z,4.30
2018-03-14T18:27:13.018Z,4.77
2018-03-14T18:29:42.867Z,4.83
2018-03-14T18:32:12.232Z,4.90
2018-03-14T18:34:40.464Z,4.77
2018-03-14T18:37:09.491Z,4.53
2018-03-14T18:39:37.774Z,5.07
2018-03-14T18:42:06.782Z,4.60
2018-03-14T18:44:35.047Z,4.80
2018-03-14T18:47:03.308Z,5.13
2018-03-14T18:49:31.633Z,5.07
2018-03-14T18:52:01.394Z,5.33
2018-03-14T18:54:29.878Z,4.97
2018-03-14T18:56:58.264Z,4.93
2018-03-14T18:59:26.645Z,4.80
2018-03-14T19:01:54.995Z,5.53
2018-03-14T19:04:23.255Z,5.10
2018-03-14T19:06:51.521Z,5.33
2018-03-14T19:09:19.792Z,5.60
2018-03-14T19:11:48.099Z,5.60
2018-03-14T19:14:17.132Z,5.27
2018-03-14T19:16:45.453Z,5.00
2018-03-14T19:19:13.745Z,5.50
2018-03-14T19:21:42.069Z,4.93
2018-03-14T19:24:11.086Z,5.27
2018-03-14T19:26:39.455Z,5.17
2018-03-14T19:29:07.712Z,4.50
2018-03-14T19:31:35.977Z,5.40
2018-03-14T19:34:04.241Z,5.43
2018-03-14T19:38:58.874Z,4.83
2018-03-14T19:41:27.846Z,5.23
2018-03-14T19:43:56.908Z,4.80
2018-03-14T19:46:25.321Z,5.13
2018-03-14T19:48:54.467Z,4.90
2018-03-14T19:51:23.936Z,5.30
2018-03-14T19:53:52.211Z,5.27
2018-03-14T19:56:21.251Z,5.30
2018-03-14T19:58:49.537Z,5.37
2018-03-14T20:01:17.777Z,5.10
2018-03-14T20:03:46.043Z,5.00
2018-03-14T20:06:14.345Z,5.30
2018-03-14T20:08:43.416Z,4.80
2018-03-14T20:11:11.678Z,5.07
2018-03-14T20:13:40.728Z,5.73
2018-03-14T20:16:08.996Z,6.10
2018-03-14T20:18:37.252Z,5.70
2018-03-14T20:21:05.528Z,5.23
2018-03-14T20:23:33.776Z,5.77
2018-03-14T20:26:02.124Z,5.40
2018-03-14T20:28:31.169Z,5.40
2018-03-14T20:30:59.583Z,5.83
2018-03-14T20:33:27.898Z,6.33
2018-03-14T20:35:56.290Z,5.70
2018-03-14T20:38:25.464Z,4.57
2018-03-14T20:40:54.390Z,6.00
2018-03-14T20:43:22.692Z,5.13
2018-03-14T20:45:50.940Z,8.33
2018-03-14T20:48:19.323Z,8.07
2018-03-14T20:50:47.601Z,23.60
2018-03-14T20:53:15.916Z,5.20
2018-03-14T20:55:44.272Z,5.83
2018-03-14T20:58:12.557Z,5.47
2018-03-14T21:00:40.847Z,8.83
2018-03-14T21:03:09.121Z,7.10
2018-03-14T21:05:37.365Z,5.83
2018-03-14T21:08:05.632Z,5.47
2018-03-14T21:10:33.882Z,5.50
2018-03-14T21:13:02.907Z,4.93
2018-03-14T21:15:31.949Z,6.00
2018-03-14T21:18:00.973Z,5.83
2018-03-14T21:20:29.261Z,5.30
2018-03-14T21:22:57.555Z,6.10
2018-03-14T21:25:26.048Z,6.03
2018-03-14T21:27:54.441Z,6.13
2018-03-14T21:30:22.685Z,5.57
2018-03-14T21:32:50.953Z,6.20
2018-03-14T21:35:19.203Z,5.53
2018-03-14T21:37:47.491Z,6.03
2018-03-14T21:40:15.744Z,6.33
2018-03-14T21:42:44.099Z,5.80
2018-03-14T21:45:12.360Z,5.83
2018-03-14T21:47:41.415Z,5.47
2018-03-14T21:50:09.683Z,5.63
2018-03-14T21:52:37.944Z,5.07
2018-03-14T21:55:06.220Z,6.10
2018-03-14T21:57:34.466Z,5.70
2018-03-14T22:00:03.506Z,6.37
2018-03-14T22:02:31.845Z,6.43
2018-03-14T22:05:01.020Z,6.90
2018-03-14T22:07:29.305Z,6.37
2018-03-14T22:09:57.689Z,7.13
2018-03-14T22:12:26.059Z,6.97
2018-03-14T22:14:54.424Z,7.00
2018-03-14T22:17:22.717Z,6.93
2018-03-14T22:19:51.015Z,7.30
2018-03-14T22:22:20.016Z,6.43
2018-03-14T22:24:48.357Z,6.13
2018-03-14T22:27:16.609Z,6.50
2018-03-14T22:29:45.020Z,6.20
2018-03-14T22:32:13.328Z,5.30
2018-03-14T22:34:41.605Z,7.10
2018-03-14T22:37:09.928Z,6.50
2018-03-14T22:39:38.152Z,6.87
2018-03-14T22:42:06.400Z,6.70
2018-03-14T22:44:34.665Z,7.10
2018-03-14T22:47:03.060Z,6.57
2018-03-14T22:49:31.304Z,6.53
2018-03-14T22:51:59.586Z,6.53
2018-03-14T22:54:28.718Z,7.03
2018-03-14T22:56:57.112Z,6.60
2018-03-14T22:59:25.462Z,6.70
2018-03-14T23:01:54.576Z,6.50
2018-03-14T23:04:22.886Z,7.80
2018-03-14T23:06:51.149Z,7.43
2018-03-14T23:09:20.176Z,7.37
2018-03-14T23:11:48.492Z,7.00
2018-03-14T23:14:16.745Z,7.57
2018-03-14T23:16:45.777Z,7.20
2018-03-14T23:19:14.072Z,6.93
2018-03-14T23:21:43.129Z,6.30
2018-03-14T23:24:11.412Z,7.50
2018-03-14T23:26:39.676Z,8.10
2018-03-14T23:29:07.924Z,7.30
2018-03-14T23:31:36.198Z,7.27
2018-03-14T23:34:05.232Z,7.17
2018-03-14T23:36:33.536Z,7.33
2018-03-14T23:39:01.789Z,7.53
2018-03-14T23:41:30.820Z,7.77
2018-03-14T23:43:59.093Z,6.90
2018-03-14T23:46:27.422Z,7.57
2018-03-14T23:48:55.760Z,8.33
2018-03-14T23:51:24.112Z,7.87
2018-03-14T23:53:53.223Z,7.77
2018-03-14T23:56:21.508Z,8.10
2018-03-14T23:58:50.568Z,7.33
